createdAt,value
2023-03-22T00:00:06.888Z,7.10
2023-03-22T00:03:10.593Z,6.60
2023-03-22T00:06:13.088Z,6.53
2023-03-22T00:09:15.881Z,6.65
2023-03-22T00:12:18.871Z,6.47
2023-03-22T00:15:21.139Z,6.68
2023-03-22T00:18:23.894Z,6.68
2023-03-22T00:21:26.109Z,6.12
2023-03-22T00:24:28.165Z,6.65
2023-03-22T00:27:30.627Z,6.47
2023-03-22T00:30:32.776Z,7.10
2023-03-22T00:33:35.517Z,6.05
2023-03-22T00:36:38.061Z,6.72
2023-03-22T00:39:40.326Z,6.53
2023-03-22T00:42:42.461Z,6.20
2023-03-22T00:45:44.683Z,6.50
2023-03-22T00:48:47.807Z,7.55
2023-03-22T00:51:49.868Z,6.10
2023-03-22T00:54:52.082Z,6.43
2023-03-22T00:57:54.179Z,6.17
2023-03-22T01:00:56.221Z,5.43
2023-03-22T01:03:58.500Z,6.60
2023-03-22T01:07:02.086Z,6.85
2023-03-22T01:10:06.356Z,7.05
2023-03-22T01:13:09.235Z,6.43
2023-03-22T01:16:11.458Z,6.35
2023-03-22T01:19:13.786Z,7.15
2023-03-22T01:22:15.899Z,7.12
2023-03-22T01:25:18.253Z,7.60
2023-03-22T01:28:20.415Z,6.67
2023-03-22T01:31:22.529Z,6.72
2023-03-22T01:34:26.660Z,6.65
2023-03-22T01:37:28.798Z,6.62
2023-03-22T01:40:31.070Z,7.20
2023-03-22T01:43:33.506Z,6.73
2023-03-22T01:46:35.711Z,6.12
2023-03-22T01:49:39.287Z,6.50
2023-03-22T01:52:41.696Z,7.65
2023-03-22T01:55:45.613Z,6.68
2023-03-22T01:58:48.998Z,6.77
2023-03-22T02:01:51.237Z,7.28
2023-03-22T02:04:58.132Z,6.85
2023-03-22T02:08:01.179Z,6.87
2023-03-22T02:11:04.572Z,7.30
2023-03-22T02:14:54.207Z,6.33
2023-03-22T02:18:30.010Z,5.47
2023-03-22T02:22:04.826Z,6.10
2023-03-22T02:25:54.637Z,5.93
2023-03-22T02:29:07.551Z,6.50
2023-03-22T02:32:28.189Z,5.97
2023-03-22T02:35:48.516Z,6.05
2023-03-22T02:39:11.789Z,6.12
2023-03-22T02:42:26.004Z,5.43
2023-03-22T02:45:54.674Z,6.00
2023-03-22T02:49:33.994Z,6.23
2023-03-22T02:52:44.659Z,6.07
2023-03-22T02:55:46.721Z,6.12
2023-03-22T02:58:53.423Z,6.10
2023-03-22T03:01:59.624Z,6.47
2023-03-22T03:05:02.991Z,7.17
2023-03-22T03:08:06.901Z,7.62
2023-03-22T03:11:10.252Z,9.30
2023-03-22T03:14:27.706Z,9.95
2023-03-22T03:17:35.660Z,10.65
2023-03-22T03:20:52.936Z,10.30
2023-03-22T03:24:03.616Z,10.05
2023-03-22T03:27:31.179Z,10.15
2023-03-22T03:30:43.373Z,10.27
2023-03-22T03:34:12.142Z,9.30
2023-03-22T03:37:19.974Z,9.30
2023-03-22T03:40:54.488Z,9.57
2023-03-22T03:43:58.677Z,10.23
2023-03-22T03:47:02.966Z,8.93
2023-03-22T03:50:06.453Z,9.05
2023-03-22T03:53:09.972Z,7.93
2023-03-22T03:56:12.146Z,7.97
2023-03-22T03:59:18.594Z,8.48
2023-03-22T04:02:20.870Z,8.43
2023-03-22T04:05:23.282Z,8.85
2023-03-22T04:08:26.054Z,8.03
2023-03-22T04:11:28.112Z,14.18
2023-03-22T04:14:30.535Z,11.02
2023-03-22T04:17:33.063Z,10.38
2023-03-22T04:20:35.046Z,7.75
2023-03-22T04:23:37.327Z,7.57
2023-03-22T04:26:39.512Z,7.80
2023-03-22T04:29:41.642Z,6.80
2023-03-22T04:32:43.734Z,6.85
2023-03-22T04:35:46.508Z,6.62
2023-03-22T04:38:49.325Z,6.63
2023-03-22T04:41:51.450Z,6.65
2023-03-22T04:44:53.437Z,8.43
2023-03-22T04:47:56.184Z,10.10
2023-03-22T04:50:58.482Z,11.82
2023-03-22T04:54:00.712Z,10.37
2023-03-22T04:57:02.798Z,10.73
2023-03-22T05:00:08.531Z,11.25
2023-03-22T05:03:10.735Z,11.38
2023-03-22T05:06:13.653Z,9.50
2023-03-22T05:09:16.271Z,9.03
2023-03-22T05:12:18.403Z,8.73
2023-03-22T05:15:20.492Z,7.65
2023-03-22T05:18:26.953Z,6.68
2023-03-22T05:21:36.743Z,6.45
2023-03-22T05:24:38.949Z,5.80
2023-03-22T05:27:41.006Z,8.55
2023-03-22T05:30:44.143Z,12.73
2023-03-22T05:33:46.795Z,12.57
2023-03-22T05:36:51.651Z,12.20
2023-03-22T05:39:56.229Z,12.80
2023-03-22T05:42:58.713Z,12.68
2023-03-22T05:46:00.754Z,15.38
2023-03-22T05:49:02.774Z,13.80
2023-03-22T05:52:06.152Z,13.73
2023-03-22T05:55:08.752Z,13.17
2023-03-22T05:58:11.028Z,11.45
2023-03-22T06:01:16.550Z,12.18
2023-03-22T06:04:18.889Z,10.50
2023-03-22T06:07:20.924Z,10.48
2023-03-22T06:10:24.327Z,10.20
2023-03-22T06:13:26.925Z,9.52
2023-03-22T06:16:29.036Z,9.43
2023-03-22T06:19:31.428Z,8.40
2023-03-22T06:22:33.738Z,7.00
2023-03-22T06:25:36.186Z,7.30
2023-03-22T06:28:38.350Z,8.20
2023-03-22T06:31:40.764Z,7.68
2023-03-22T06:34:42.946Z,7.55
2023-03-22T06:37:45.014Z,9.20
2023-03-22T06:40:47.213Z,12.00
2023-03-22T06:43:49.267Z,9.98
2023-03-22T06:46:51.483Z,11.32
2023-03-22T06:49:53.786Z,10.00
2023-03-22T06:52:56.410Z,10.10
2023-03-22T06:55:58.404Z,8.93
2023-03-22T06:59:00.463Z,9.38
2023-03-22T07:02:02.966Z,9.50
2023-03-22T07:05:05.480Z,8.20
2023-03-22T07:08:07.834Z,9.95
2023-03-22T07:11:09.870Z,9.60
2023-03-22T07:14:11.955Z,8.60
2023-03-22T07:17:14.341Z,8.57
2023-03-22T07:20:16.610Z,7.72
2023-03-22T07:23:18.934Z,9.45
2023-03-22T07:26:21.258Z,10.67
2023-03-22T07:29:23.987Z,9.30
2023-03-22T07:32:26.161Z,9.27
2023-03-22T07:35:28.315Z,8.48
2023-03-22T07:38:31.081Z,8.75
2023-03-22T07:41:33.330Z,8.27
2023-03-22T07:44:36.205Z,8.63
2023-03-22T07:47:41.335Z,8.68
2023-03-22T07:50:43.696Z,9.38
2023-03-22T07:53:46.135Z,8.90
2023-03-22T07:56:48.499Z,9.80
2023-03-22T07:59:50.676Z,10.10
2023-03-22T08:02:53.066Z,9.73
2023-03-22T08:05:58.721Z,9.60
2023-03-22T08:09:01.351Z,8.93
2023-03-22T08:12:03.849Z,9.20
2023-03-22T08:15:06.436Z,10.57
2023-03-22T08:18:08.880Z,9.35
2023-03-22T08:21:11.382Z,8.80
2023-03-22T08:24:16.126Z,8.75
2023-03-22T08:27:19.263Z,8.80
2023-03-22T08:30:22.541Z,9.23
2023-03-22T08:33:25.488Z,9.80
2023-03-22T08:36:27.720Z,8.70
2023-03-22T08:39:29.758Z,8.60
2023-03-22T08:42:32.120Z,9.30
2023-03-22T08:45:34.739Z,8.55
2023-03-22T08:48:38.665Z,9.43
2023-03-22T08:51:41.343Z,7.90
2023-03-22T08:54:43.650Z,8.27
2023-03-22T08:57:50.317Z,8.00
2023-03-22T09:00:52.588Z,7.28
2023-03-22T09:03:54.822Z,6.35
2023-03-22T09:06:57.033Z,6.45
2023-03-22T09:09:59.235Z,7.60
2023-03-22T09:13:01.391Z,7.07
2023-03-22T09:16:04.465Z,7.68
2023-03-22T09:19:06.889Z,8.60
2023-03-22T09:22:09.493Z,9.05
2023-03-22T09:25:13.096Z,8.05
2023-03-22T09:28:16.676Z,8.20
2023-03-22T09:31:20.522Z,8.38
2023-03-22T09:34:22.977Z,7.53
2023-03-22T09:37:30.379Z,7.68
2023-03-22T09:40:35.264Z,8.57
2023-03-22T09:43:42.536Z,8.13
2023-03-22T09:46:48.175Z,8.13
2023-03-22T09:50:01.419Z,6.25
2023-03-22T09:53:03.585Z,7.55
2023-03-22T09:56:18.002Z,6.10
2023-03-22T09:59:40.146Z,6.20
2023-03-22T10:02:54.662Z,5.97
2023-03-22T10:06:21.052Z,6.62
2023-03-22T10:09:37.628Z,5.72
2023-03-22T10:12:40.024Z,6.55
2023-03-22T10:15:48.541Z,5.93
2023-03-22T10:18:53.934Z,6.90
2023-03-22T10:22:00.145Z,4.87
2023-03-22T10:25:03.294Z,5.30
2023-03-22T10:28:24.047Z,5.35
2023-03-22T10:31:28.111Z,5.17
2023-03-22T10:34:33.777Z,4.90
2023-03-22T10:37:37.754Z,4.95
2023-03-22T10:40:41.134Z,5.03
2023-03-22T10:43:46.205Z,5.70
2023-03-22T10:46:51.617Z,4.70
2023-03-22T10:49:56.312Z,4.43
2023-03-22T10:53:07.102Z,3.83
2023-03-22T10:56:15.903Z,3.95
2023-03-22T10:59:51.787Z,4.03
2023-03-22T11:02:59.736Z,3.90
2023-03-22T11:06:18.244Z,4.35
2023-03-22T11:09:23.785Z,5.37
2023-03-22T11:12:25.974Z,4.62
2023-03-22T11:15:31.869Z,4.75
2023-03-22T11:18:35.183Z,4.07
2023-03-22T11:21:37.397Z,4.32
2023-03-22T11:24:39.545Z,4.82
2023-03-22T11:27:57.944Z,4.43
2023-03-22T11:31:09.956Z,4.87
2023-03-22T11:34:18.490Z,4.77
2023-03-22T11:37:22.442Z,4.50
2023-03-22T11:40:30.910Z,4.12
2023-03-22T11:43:37.414Z,4.47
2023-03-22T11:46:40.353Z,4.75
2023-03-22T11:49:51.267Z,4.37
2023-03-22T11:52:54.194Z,4.70
2023-03-22T11:55:57.974Z,4.62
2023-03-22T11:59:08.936Z,4.45
2023-03-22T12:02:49.867Z,4.55
2023-03-22T12:05:53.241Z,4.07
2023-03-22T12:09:11.037Z,4.47
2023-03-22T12:12:19.397Z,4.37
2023-03-22T12:15:24.740Z,4.65
2023-03-22T12:18:36.497Z,4.60
2023-03-22T12:21:38.981Z,4.27
2023-03-22T12:24:42.913Z,4.32
2023-03-22T12:27:48.794Z,4.10
2023-03-22T12:30:54.627Z,3.72
2023-03-22T12:34:03.311Z,4.28
2023-03-22T12:37:09.354Z,4.23
2023-03-22T12:40:28.655Z,4.00
2023-03-22T12:43:33.543Z,4.00
2023-03-22T12:46:45.215Z,3.85
2023-03-22T12:49:49.958Z,3.87
2023-03-22T12:52:56.657Z,4.20
2023-03-22T12:56:01.199Z,4.43
2023-03-22T12:59:06.674Z,3.90
2023-03-22T13:02:19.928Z,3.70
2023-03-22T13:05:27.199Z,3.80
2023-03-22T13:09:24.379Z,4.10
2023-03-22T13:12:30.508Z,3.90
2023-03-22T13:15:42.081Z,4.03
2023-03-22T13:18:45.335Z,3.60
2023-03-22T13:21:49.456Z,3.85
2023-03-22T13:25:12.636Z,3.43
2023-03-22T13:28:37.283Z,3.97
2023-03-22T13:31:44.576Z,3.60
2023-03-22T13:34:52.580Z,3.62
2023-03-22T13:38:03.061Z,3.28
2023-03-22T13:41:14.194Z,3.60
2023-03-22T13:44:26.510Z,3.03
2023-03-22T13:47:43.755Z,3.80
2023-03-22T13:50:46.185Z,3.03
2023-03-22T13:53:57.243Z,3.03
2023-03-22T13:57:01.634Z,2.70
2023-03-22T14:00:33.617Z,3.15
2023-03-22T14:03:40.981Z,3.58
2023-03-22T14:07:24.391Z,3.17
2023-03-22T14:10:33.093Z,3.40
2023-03-22T14:13:42.374Z,2.80
2023-03-22T14:16:50.901Z,3.58
2023-03-22T14:19:53.512Z,3.28
